createdAt,value
2024-02-22T00:00:03.594Z,7.49
2024-02-22T00:02:40.972Z,7.55
2024-02-22T00:05:09.649Z,7.74
2024-02-22T00:07:37.687Z,7.67
2024-02-22T00:10:09.722Z,7.14
2024-02-22T00:12:39.895Z,7.57
2024-02-22T00:15:11.931Z,7.75
2024-02-22T00:17:41.386Z,7.68
2024-02-22T00:20:12.090Z,7.64
2024-02-22T00:22:41.094Z,7.79
2024-02-22T00:25:11.289Z,7.70
2024-02-22T00:27:39.879Z,7.80
2024-02-22T00:30:10.581Z,7.82
2024-02-22T00:32:38.132Z,7.84
2024-02-22T00:35:07.502Z,7.62
2024-02-22T00:37:39.198Z,7.82
2024-02-22T00:40:10.283Z,7.85
2024-02-22T00:42:39.934Z,7.86
2024-02-22T00:45:10.672Z,7.69
2024-02-22T00:47:38.512Z,7.88
2024-02-22T00:50:07.444Z,7.87
2024-02-22T00:52:36.309Z,7.31
2024-02-22T00:55:04.625Z,7.25
2024-02-22T00:57:32.481Z,7.91
2024-02-22T01:00:03.225Z,7.84
2024-02-22T01:02:30.753Z,7.92
2024-02-22T01:04:58.541Z,6.82
2024-02-22T01:07:26.403Z,7.83
2024-02-22T01:09:54.326Z,7.51
2024-02-22T01:12:23.598Z,7.94
2024-02-22T01:14:51.563Z,7.94
2024-02-22T01:17:20.751Z,7.97
2024-02-22T01:19:49.093Z,7.29
2024-02-22T01:22:16.953Z,7.96
2024-02-22T01:24:45.166Z,7.96
2024-02-22T01:27:14.069Z,7.97
2024-02-22T01:29:43.037Z,7.97
2024-02-22T01:32:11.140Z,7.96
2024-02-22T01:34:42.700Z,7.97
2024-02-22T01:37:10.415Z,7.75
2024-02-22T01:39:38.648Z,7.95
2024-02-22T01:42:06.727Z,8.01
2024-02-22T01:44:34.461Z,8.01
2024-02-22T01:47:02.847Z,8.03
2024-02-22T01:49:30.852Z,8.00
2024-02-22T01:52:05.691Z,8.02
2024-02-22T01:54:33.903Z,8.02
2024-02-22T01:57:02.126Z,8.04
2024-02-22T01:59:29.939Z,7.60
2024-02-22T02:02:00.161Z,8.03
2024-02-22T02:04:29.677Z,8.09
2024-02-22T02:07:00.565Z,8.09
2024-02-22T02:09:30.206Z,8.09
2024-02-22T02:11:58.311Z,7.79
2024-02-22T02:14:27.653Z,7.13
2024-02-22T02:16:55.562Z,8.08
2024-02-22T02:19:27.766Z,7.82
2024-02-22T02:22:09.821Z,8.15
2024-02-22T02:24:44.480Z,7.71
2024-02-22T02:27:15.893Z,7.87
2024-02-22T02:29:45.819Z,8.02
2024-02-22T02:32:14.491Z,8.17
2024-02-22T02:34:42.785Z,8.16
2024-02-22T02:37:11.896Z,8.07
2024-02-22T02:39:40.187Z,7.93
2024-02-22T02:42:08.448Z,8.18
2024-02-22T02:44:37.578Z,8.04
2024-02-22T02:47:10.265Z,7.90
2024-02-22T02:49:38.378Z,7.71
2024-02-22T02:52:06.385Z,7.75
2024-02-22T02:54:35.004Z,7.67
2024-02-22T02:57:03.064Z,8.24
2024-02-22T02:59:31.148Z,8.26
2024-02-22T03:02:00.937Z,8.27
2024-02-22T03:04:29.460Z,8.25
2024-02-22T03:06:57.240Z,8.24
2024-02-22T03:09:27.308Z,7.86
2024-02-22T03:11:55.643Z,8.27
2024-02-22T03:14:23.420Z,8.28
2024-02-22T03:16:53.457Z,8.27
2024-02-22T03:19:22.774Z,8.28
2024-02-22T03:21:50.580Z,8.28
2024-02-22T03:24:18.272Z,8.07
2024-02-22T03:26:47.631Z,8.20
2024-02-22T03:29:15.694Z,8.30
2024-02-22T03:31:44.463Z,8.23
2024-02-22T03:34:13.396Z,8.34
2024-02-22T03:36:43.114Z,7.77
2024-02-22T03:39:13.689Z,8.31
2024-02-22T03:41:41.518Z,8.10
2024-02-22T03:44:09.276Z,8.30
2024-02-22T03:46:39.130Z,8.31
2024-02-22T03:49:08.140Z,8.31
2024-02-22T03:51:36.596Z,8.36
2024-02-22T03:54:06.020Z,8.25
2024-02-22T03:56:34.715Z,8.40
2024-02-22T03:59:02.563Z,8.36
2024-02-22T04:01:35.874Z,8.34
2024-02-22T04:04:05.080Z,7.94
2024-02-22T04:06:35.101Z,8.36
2024-02-22T04:09:07.519Z,8.14
2024-02-22T04:11:35.735Z,7.81
2024-02-22T04:14:06.009Z,8.31
2024-02-22T04:16:35.008Z,8.37
2024-02-22T04:19:03.620Z,8.37
2024-02-22T04:21:31.591Z,8.35
2024-02-22T04:23:59.296Z,8.35
2024-02-22T04:26:28.612Z,8.36
2024-02-22T04:28:56.436Z,8.16
2024-02-22T04:31:24.261Z,8.30
2024-02-22T04:33:52.353Z,8.41
2024-02-22T04:36:20.811Z,8.40
2024-02-22T04:38:49.378Z,8.42
2024-02-22T04:41:22.185Z,8.41
2024-02-22T04:43:51.926Z,8.26
2024-02-22T04:46:20.607Z,8.37
2024-02-22T04:48:48.947Z,8.21
2024-02-22T04:51:17.141Z,8.47
2024-02-22T04:53:45.052Z,8.22
2024-02-22T04:56:14.501Z,8.49
2024-02-22T04:58:42.845Z,8.49
2024-02-22T05:01:13.256Z,8.29
2024-02-22T05:03:41.924Z,8.49
2024-02-22T05:06:11.629Z,8.41
2024-02-22T05:08:40.089Z,8.51
2024-02-22T05:11:08.379Z,8.48
2024-02-22T05:13:36.431Z,8.54
2024-02-22T05:16:06.908Z,8.10
2024-02-22T05:18:37.084Z,8.55
2024-02-22T05:21:05.114Z,8.58
2024-02-22T05:23:32.909Z,8.31
2024-02-22T05:26:04.221Z,8.56
2024-02-22T05:28:32.183Z,8.52
2024-02-22T05:31:00.473Z,8.55
2024-02-22T05:33:30.308Z,7.91
2024-02-22T05:35:59.928Z,8.36
2024-02-22T05:38:27.676Z,8.59
2024-02-22T05:40:55.605Z,8.40
2024-02-22T05:43:25.487Z,8.63
2024-02-22T05:45:55.350Z,8.48
2024-02-22T05:48:24.662Z,8.64
2024-02-22T05:50:53.289Z,8.66
2024-02-22T05:53:23.675Z,8.66
2024-02-22T05:55:52.971Z,7.69
2024-02-22T05:58:21.601Z,8.14
2024-02-22T06:00:50.759Z,8.15
2024-02-22T06:03:19.087Z,8.44
2024-02-22T06:05:47.271Z,8.42
2024-02-22T06:08:15.073Z,8.61
2024-02-22T06:10:44.870Z,8.19
2024-02-22T06:13:12.828Z,7.98
2024-02-22T06:15:40.665Z,8.32
2024-02-22T06:18:10.201Z,8.54
2024-02-22T06:20:39.307Z,8.69
2024-02-22T06:23:07.652Z,8.78
2024-02-22T06:25:37.059Z,8.76
2024-02-22T06:28:07.514Z,8.60
2024-02-22T06:30:36.313Z,8.80
2024-02-22T06:33:04.096Z,8.79
2024-02-22T06:35:32.824Z,8.81
2024-02-22T06:38:01.796Z,8.80
2024-02-22T06:40:29.774Z,8.79
2024-02-22T06:43:00.084Z,8.74
2024-02-22T06:45:29.243Z,8.86
2024-02-22T06:47:58.946Z,8.44
2024-02-22T06:50:27.254Z,8.66
2024-02-22T06:52:55.012Z,8.86
2024-02-22T06:55:26.133Z,8.86
2024-02-22T06:57:54.800Z,8.87
2024-02-22T07:00:24.054Z,8.86
2024-02-22T07:02:54.800Z,8.78
2024-02-22T07:05:23.225Z,8.89
2024-02-22T07:07:51.470Z,8.91
2024-02-22T07:10:19.522Z,8.90
2024-02-22T07:12:48.001Z,8.92
2024-02-22T07:15:17.786Z,8.88
2024-02-22T07:17:47.346Z,8.65
2024-02-22T07:20:16.951Z,8.87
2024-02-22T07:22:48.096Z,8.88
2024-02-22T07:25:17.941Z,8.67
2024-02-22T07:27:46.089Z,8.35
2024-02-22T07:30:14.998Z,8.84
2024-02-22T07:32:42.848Z,8.95
2024-02-22T07:35:12.310Z,8.96
2024-02-22T07:37:43.192Z,8.88
2024-02-22T07:40:11.758Z,8.61
2024-02-22T07:42:41.758Z,8.73
2024-02-22T07:45:11.580Z,8.94
2024-02-22T07:47:40.562Z,8.95
2024-02-22T07:50:12.433Z,8.99
2024-02-22T07:52:42.633Z,8.89
2024-02-22T07:55:11.559Z,8.55
2024-02-22T07:57:41.871Z,8.36
2024-02-22T08:00:10.455Z,9.04
2024-02-22T08:02:38.515Z,9.03
2024-02-22T08:05:11.379Z,8.98
2024-02-22T08:07:40.006Z,9.04
2024-02-22T08:10:11.003Z,9.07
2024-02-22T08:12:39.019Z,9.06
2024-02-22T08:15:09.243Z,9.06
2024-02-22T08:17:39.819Z,9.10
2024-02-22T08:20:08.749Z,9.10
2024-02-22T08:22:37.443Z,9.09
2024-02-22T08:25:06.964Z,9.09
2024-02-22T08:27:46.410Z,9.09
2024-02-22T08:30:30.746Z,9.09
2024-02-22T08:32:59.771Z,8.48
2024-02-22T08:35:27.771Z,9.07
2024-02-22T08:37:56.280Z,9.09
2024-02-22T08:40:34.917Z,9.10
2024-02-22T08:43:09.361Z,8.89
2024-02-22T08:45:37.063Z,9.23
2024-02-22T08:48:05.955Z,8.85
2024-02-22T08:50:34.521Z,9.15
2024-02-22T08:53:05.853Z,9.14
2024-02-22T08:55:39.524Z,9.08
2024-02-22T08:58:09.680Z,9.24
2024-02-22T09:00:39.723Z,9.26
2024-02-22T09:03:13.022Z,9.24
2024-02-22T09:05:42.599Z,9.33
2024-02-22T09:08:14.762Z,9.35
2024-02-22T09:10:43.794Z,9.39
2024-02-22T09:13:13.345Z,9.09
2024-02-22T09:15:41.969Z,9.43
2024-02-22T09:18:10.143Z,9.43
2024-02-22T09:20:38.912Z,9.39
2024-02-22T09:23:07.416Z,9.44
2024-02-22T09:25:36.214Z,9.44
2024-02-22T09:28:04.600Z,9.43
2024-02-22T09:30:42.973Z,9.09
2024-02-22T09:33:16.074Z,9.11
2024-02-22T09:35:47.405Z,9.27
2024-02-22T09:38:15.900Z,9.52
2024-02-22T09:40:44.275Z,9.44
2024-02-22T09:43:12.131Z,9.57
2024-02-22T09:45:42.038Z,9.56
2024-02-22T09:48:11.849Z,9.31
2024-02-22T09:50:39.972Z,9.57
2024-02-22T09:53:08.511Z,9.47
2024-02-22T09:55:37.466Z,9.39
2024-02-22T09:58:06.058Z,9.64
2024-02-22T10:00:35.170Z,9.36
2024-02-22T10:03:04.859Z,9.16
2024-02-22T10:05:42.278Z,9.53
2024-02-22T10:08:12.092Z,9.69
2024-02-22T10:10:46.672Z,9.76
2024-02-22T10:13:22.161Z,9.34
2024-02-22T10:18:48.180Z,9.78
2024-02-22T10:21:18.772Z,9.79
2024-02-22T10:23:47.964Z,9.82
2024-02-22T10:26:16.592Z,9.87
2024-02-22T10:28:44.845Z,9.87
2024-02-22T10:31:13.966Z,9.92
2024-02-22T10:33:42.215Z,9.93
2024-02-22T10:36:11.769Z,9.95
2024-02-22T10:38:40.625Z,10.07
2024-02-22T10:41:11.898Z,10.11
2024-02-22T10:43:42.724Z,10.02
2024-02-22T10:46:13.715Z,10.17
2024-02-22T10:48:52.946Z,10.22
2024-02-22T10:51:24.309Z,10.22
2024-02-22T10:53:56.320Z,10.23
2024-02-22T10:56:26.125Z,10.26
2024-02-22T10:59:10.875Z,10.28
2024-02-22T11:01:39.992Z,10.28
2024-02-22T11:04:09.076Z,10.27
2024-02-22T11:06:42.491Z,10.24
2024-02-22T11:09:19.310Z,10.24
2024-02-22T11:11:49.912Z,10.19
2024-02-22T11:14:36.383Z,10.23
2024-02-22T11:17:16.739Z,10.18
2024-02-22T11:19:56.550Z,10.19
2024-02-22T11:22:34.986Z,10.19
2024-02-22T11:25:08.769Z,10.19
2024-02-22T11:27:37.962Z,10.22
2024-02-22T11:30:18.892Z,10.21
2024-02-22T11:32:56.612Z,10.17
2024-02-22T11:35:26.723Z,10.16
2024-02-22T11:38:01.011Z,10.18
2024-02-22T11:40:38.315Z,10.17
2024-02-22T11:43:06.637Z,10.18
2024-02-22T11:45:40.028Z,10.16
2024-02-22T11:48:09.975Z,10.19
2024-02-22T11:50:38.518Z,10.18
2024-02-22T11:53:09.156Z,10.21
2024-02-22T11:55:36.787Z,10.21
2024-02-22T11:58:04.781Z,10.24
2024-02-22T12:00:33.313Z,10.23
2024-02-22T12:03:01.547Z,10.29
2024-02-22T12:05:31.454Z,10.27
2024-02-22T12:07:59.847Z,10.31
2024-02-22T12:10:29.593Z,10.28
2024-02-22T12:12:57.773Z,10.30
2024-02-22T12:15:28.027Z,10.31
2024-02-22T12:17:57.730Z,10.32
2024-02-22T12:20:28.102Z,10.33
2024-02-22T12:22:56.646Z,10.35
2024-02-22T12:25:25.564Z,10.36
2024-02-22T12:27:56.659Z,10.32
2024-02-22T12:30:27.248Z,10.34
2024-02-22T12:32:55.417Z,10.36
2024-02-22T12:35:24.244Z,10.37
2024-02-22T12:37:52.489Z,10.35
2024-02-22T12:40:20.332Z,10.31
2024-02-22T12:42:56.376Z,10.31
2024-02-22T12:45:28.837Z,10.36
2024-02-22T12:47:56.837Z,10.41
2024-02-22T12:50:25.066Z,10.43
2024-02-22T12:52:52.825Z,10.44
2024-02-22T12:55:21.349Z,10.43
2024-02-22T12:57:49.472Z,10.47
2024-02-22T13:00:19.853Z,10.45
2024-02-22T13:02:52.938Z,10.45
2024-02-22T13:05:21.127Z,10.43
2024-02-22T13:07:50.978Z,10.38
2024-02-22T13:10:19.163Z,10.37
2024-02-22T13:12:46.961Z,10.37
2024-02-22T13:15:14.544Z,10.38
2024-02-22T13:17:46.845Z,10.37
2024-02-22T13:20:20.208Z,10.34
2024-02-22T13:22:48.239Z,10.28
2024-02-22T13:25:19.860Z,10.31
2024-02-22T13:27:47.477Z,10.31
2024-02-22T13:30:17.520Z,10.29
2024-02-22T13:32:51.990Z,10.30
2024-02-22T13:35:19.950Z,10.29
2024-02-22T13:37:48.200Z,10.29
2024-02-22T13:40:18.586Z,10.29
2024-02-22T13:42:46.749Z,10.28
2024-02-22T13:45:18.029Z,10.27
2024-02-22T13:47:47.977Z,10.32
2024-02-22T13:50:17.941Z,10.29
2024-02-22T13:52:46.532Z,10.32
2024-02-22T13:55:14.750Z,10.31
2024-02-22T13:57:43.856Z,10.33
2024-02-22T14:00:14.480Z,10.38
2024-02-22T14:02:42.349Z,10.41
2024-02-22T14:05:12.209Z,10.45
2024-02-22T14:07:42.830Z,10.51
2024-02-22T14:10:10.828Z,10.56
2024-02-22T14:12:39.245Z,10.56
2024-02-22T14:15:08.313Z,10.57
2024-02-22T14:17:36.797Z,10.49
2024-02-22T14:20:06.044Z,10.42
2024-02-22T14:22:35.173Z,10.39
2024-02-22T14:25:02.901Z,10.41
2024-02-22T14:27:33.073Z,10.39
2024-02-22T14:30:01.178Z,10.42
2024-02-22T14:32:29.210Z,10.44
2024-02-22T14:34:57.356Z,10.40
2024-02-22T14:37:25.519Z,10.41
2024-02-22T14:39:54.570Z,10.39
2024-02-22T14:42:24.619Z,10.36
2024-02-22T14:44:52.777Z,10.33
2024-02-22T14:47:23.262Z,10.35
2024-02-22T14:49:51.775Z,10.35
2024-02-22T14:52:19.769Z,10.33
2024-02-22T14:54:47.898Z,10.41
2024-02-22T14:57:17.540Z,10.36
2024-02-22T14:59:45.670Z,10.28
2024-02-22T15:02:13.840Z,10.30
2024-02-22T15:04:42.411Z,10.27
2024-02-22T15:07:10.425Z,10.24
2024-02-22T15:09:38.745Z,10.29
2024-02-22T15:12:08.182Z,10.30
2024-02-22T15:14:39.236Z,10.30
2024-02-22T15:17:07.839Z,10.29
2024-02-22T15:19:36.514Z,10.26
2024-02-22T15:22:06.310Z,10.24
2024-02-22T15:24:35.058Z,10.17
2024-02-22T15:27:04.997Z,10.21
2024-02-22T15:29:34.148Z,10.25
2024-02-22T15:32:05.925Z,10.25
2024-02-22T15:34:35.294Z,10.23
2024-02-22T15:37:03.297Z,10.23
2024-02-22T15:39:31.171Z,10.25
2024-02-22T15:41:59.670Z,10.22
2024-02-22T15:44:27.521Z,10.14
2024-02-22T15:46:55.316Z,10.16
2024-02-22T15:49:24.500Z,10.11
2024-02-22T15:51:54.430Z,10.14
2024-02-22T15:54:22.599Z,10.13
2024-02-22T15:56:51.293Z,10.15
2024-02-22T15:59:19.325Z,10.09
2024-02-22T16:01:47.294Z,10.10
2024-02-22T16:04:15.143Z,10.11
2024-02-22T16:06:44.802Z,10.12
2024-02-22T16:09:13.007Z,10.11
2024-02-22T16:11:40.792Z,10.11
2024-02-22T16:14:08.571Z,10.14
2024-02-22T16:16:36.541Z,10.11
2024-02-22T16:19:07.993Z,10.07
2024-02-22T16:21:37.933Z,10.03
2024-02-22T16:24:08.489Z,10.03
2024-02-22T16:26:38.428Z,10.06
2024-02-22T16:29:06.570Z,10.06
2024-02-22T16:31:34.458Z,10.05
2024-02-22T16:34:02.271Z,10.05
2024-02-22T16:36:30.025Z,10.03
2024-02-22T16:39:02.862Z,10.03
2024-02-22T16:41:37.990Z,10.03
2024-02-22T16:44:09.222Z,10.06
2024-02-22T16:46:41.893Z,9.96
2024-02-22T16:49:10.350Z,10.04
2024-02-22T16:51:38.544Z,10.03
2024-02-22T16:54:06.528Z,10.04
2024-02-22T16:56:34.897Z,10.06
2024-02-22T16:59:05.274Z,9.98
2024-02-22T17:01:33.436Z,10.05
2024-02-22T17:04:02.888Z,10.06
2024-02-22T17:06:32.745Z,10.08
2024-02-22T17:09:01.112Z,10.07
2024-02-22T17:11:29.776Z,10.09
2024-02-22T17:13:57.990Z,10.07
2024-02-22T17:16:27.150Z,10.08
2024-02-22T17:18:55.256Z,10.09
2024-02-22T17:21:24.982Z,10.10
2024-02-22T17:23:52.849Z,10.08
2024-02-22T17:26:21.186Z,10.08
2024-02-22T17:28:50.887Z,10.09
2024-02-22T17:31:18.651Z,10.12
2024-02-22T17:33:48.814Z,10.09
2024-02-22T17:36:17.184Z,10.07
2024-02-22T17:38:45.126Z,10.07
2024-02-22T17:41:13.303Z,10.08
2024-02-22T17:43:41.216Z,10.05
2024-02-22T17:46:09.727Z,10.08
2024-02-22T17:48:39.533Z,10.09
2024-02-22T17:51:09.731Z,10.11
2024-02-22T17:53:40.763Z,10.14
2024-02-22T17:56:09.234Z,10.17
2024-02-22T17:58:47.811Z,10.16
2024-02-22T18:01:23.572Z,10.18
2024-02-22T18:03:51.737Z,10.14
2024-02-22T18:06:21.977Z,10.16
2024-02-22T18:08:50.130Z,10.17
2024-02-22T18:11:20.203Z,10.22
2024-02-22T18:13:48.510Z,10.21
2024-02-22T18:16:16.809Z,10.15
2024-02-22T18:18:46.233Z,10.17
2024-02-22T18:21:14.387Z,10.19
2024-02-22T18:23:46.352Z,10.20
2024-02-22T18:26:15.514Z,10.19
2024-02-22T18:28:44.978Z,10.18
2024-02-22T18:31:13.450Z,10.20
2024-02-22T18:33:41.265Z,10.21
2024-02-22T18:36:10.700Z,10.21
2024-02-22T18:38:42.569Z,10.24
2024-02-22T18:41:14.430Z,10.21
2024-02-22T18:43:43.493Z,10.53
2024-02-22T18:46:11.376Z,10.59
2024-02-22T18:48:40.940Z,10.54
2024-02-22T18:51:10.179Z,10.42
2024-02-22T18:53:38.968Z,10.42
2024-02-22T18:56:07.149Z,10.36
2024-02-22T18:58:36.743Z,10.34
2024-02-22T19:01:05.581Z,10.29
2024-02-22T19:03:37.439Z,10.33
2024-02-22T19:06:05.953Z,10.31
2024-02-22T19:08:33.849Z,10.31
2024-02-22T19:11:06.406Z,10.30
2024-02-22T19:13:35.533Z,10.27
2024-02-22T19:16:05.033Z,10.23
2024-02-22T19:18:32.950Z,10.16
2024-02-22T19:21:00.858Z,10.14
2024-02-22T19:23:28.881Z,10.21
2024-02-22T19:25:56.999Z,10.16
2024-02-22T19:28:26.111Z,10.12
2024-02-22T19:30:53.914Z,10.15
2024-02-22T19:33:23.126Z,10.19
2024-02-22T19:35:51.345Z,10.16
2024-02-22T19:38:21.910Z,10.09
2024-02-22T19:40:52.163Z,10.18
2024-02-22T19:43:21.200Z,10.19
2024-02-22T19:45:49.374Z,10.17
2024-02-22T19:48:17.669Z,10.16
2024-02-22T19:50:47.180Z,10.17
2024-02-22T19:53:15.083Z,10.09
2024-02-22T19:55:44.382Z,10.14
2024-02-22T19:58:12.817Z,10.11
2024-02-22T20:00:40.609Z,10.10
2024-02-22T20:03:10.199Z,10.08
2024-02-22T20:05:38.439Z,10.05
2024-02-22T20:08:08.670Z,9.90
2024-02-22T20:10:36.600Z,9.99
2024-02-22T20:13:04.509Z,9.97
2024-02-22T20:15:32.506Z,10.01
2024-02-22T20:18:01.381Z,10.01
2024-02-22T20:20:30.078Z,10.01
2024-02-22T20:22:58.210Z,10.01
2024-02-22T20:25:27.751Z,10.02
2024-02-22T20:27:58.257Z,10.05
2024-02-22T20:30:26.220Z,10.15
2024-02-22T20:32:54.297Z,10.25
2024-02-22T20:35:25.908Z,10.48
2024-02-22T20:37:55.117Z,10.66
2024-02-22T20:40:23.501Z,10.68
2024-02-22T20:42:53.411Z,10.73
2024-02-22T20:45:22.004Z,10.67
2024-02-22T20:47:49.867Z,10.78
2024-02-22T20:50:21.639Z,10.89
2024-02-22T20:52:49.933Z,10.89
2024-02-22T20:55:17.700Z,10.70
2024-02-22T20:57:45.986Z,10.62
2024-02-22T21:00:18.076Z,10.44
2024-02-22T21:02:46.124Z,10.41
2024-02-22T21:05:14.061Z,10.36
2024-02-22T21:07:44.043Z,10.07
2024-02-22T21:10:12.710Z,10.18
2024-02-22T21:12:40.948Z,10.24
2024-02-22T21:15:11.373Z,10.17
2024-02-22T21:17:41.644Z,10.21
2024-02-22T21:20:12.022Z,10.11
2024-02-22T21:22:40.970Z,10.06
2024-02-22T21:25:09.418Z,10.04
2024-02-22T21:27:40.705Z,9.99
2024-02-22T21:30:11.321Z,9.93
2024-02-22T21:32:41.732Z,9.92
2024-02-22T21:35:10.529Z,9.82
2024-02-22T21:37:42.136Z,9.66
2024-02-22T21:40:11.362Z,9.66
2024-02-22T21:42:39.181Z,9.58
2024-02-22T21:45:07.783Z,9.64
2024-02-22T21:47:37.065Z,9.50
2024-02-22T21:50:09.893Z,9.55
2024-02-22T21:52:38.700Z,9.44
2024-02-22T21:55:10.041Z,9.33
2024-02-22T21:57:38.752Z,9.33
2024-02-22T22:00:11.044Z,9.27
2024-02-22T22:02:43.047Z,9.26
2024-02-22T22:05:12.453Z,9.28
2024-02-22T22:07:41.338Z,9.20
2024-02-22T22:10:10.185Z,9.12
2024-02-22T22:12:40.287Z,9.27
2024-02-22T22:15:10.138Z,9.12
2024-02-22T22:17:39.875Z,8.99
2024-02-22T22:20:09.229Z,9.05
2024-02-22T22:22:38.744Z,8.99
2024-02-22T22:25:08.254Z,8.99
2024-02-22T22:27:35.948Z,8.93
2024-02-22T22:30:04.278Z,8.88
2024-02-22T22:32:34.094Z,8.96
2024-02-22T22:35:02.549Z,8.81
2024-02-22T22:37:30.527Z,8.83
2024-02-22T22:39:59.599Z,8.77
2024-02-22T22:42:27.416Z,8.74
2024-02-22T22:44:58.058Z,8.73
2024-02-22T22:47:26.537Z,8.72
2024-02-22T22:49:54.444Z,8.67
2024-02-22T22:52:22.374Z,8.67
2024-02-22T22:54:51.053Z,8.68
2024-02-22T22:57:23.387Z,8.61
2024-02-22T22:59:53.217Z,8.63
2024-02-22T23:02:21.957Z,8.43
2024-02-22T23:04:53.625Z,8.53
2024-02-22T23:07:26.348Z,8.40
2024-02-22T23:09:56.809Z,8.41
2024-02-22T23:12:28.491Z,8.26
2024-02-22T23:14:57.398Z,8.43
2024-02-22T23:17:25.460Z,8.40
2024-02-22T23:19:54.584Z,8.28
2024-02-22T23:22:28.837Z,8.23
2024-02-22T23:24:59.273Z,8.32
2024-02-22T23:27:29.386Z,8.37
2024-02-22T23:29:58.211Z,8.34
2024-02-22T23:32:26.531Z,8.37
2024-02-22T23:34:56.611Z,8.36
2024-02-22T23:37:24.744Z,8.32
2024-02-22T23:39:53.857Z,8.31
2024-02-22T23:42:21.676Z,8.44
2024-02-22T23:44:52.518Z,8.34
2024-02-22T23:47:22.067Z,8.35
2024-02-22T23:49:50.326Z,8.40
2024-02-22T23:52:18.096Z,8.40
2024-02-22T23:54:46.871Z,8.44
2024-02-22T23:57:14.800Z,8.42
2024-02-22T23:59:44.300Z,8.44
